• Join FlightAware (Why Join?)
  • Login
  • US Flag 
01:54AM EST


 

Airport Tracker/Info


-or-


 

Live Flight TrackerFlight Track Log ✈ AFL150 ✈ 15-Dec-2013 ✈ UUEE / SVO - MUHA / HAV

Flight Track Log - Related Links

Times and Time Zones

All times are in EST time to prevent confusion due to time zone crossing. See the AFL150 flight status page for this flight to view local times or setup timezone preferences in your user account.

Time Position Orientation Groundspeed Altitude Reporting Facility
EST Latitude Longitude Course Direction KTS MPH feet Rate Location/Type
04:49AM 56.0530 37.0471 321° Northwest  Level FlightAware Approximate
04:50AM 56.1446 36.9118 321° Northwest  Level FlightAware Approximate
04:51AM 56.2361 36.7758 320° Northwest  Level FlightAware Approximate
04:52AM 56.3274 36.6393 320° Northwest  Level FlightAware Approximate
04:53AM 56.4186 36.5020 320° Northwest  Level FlightAware Approximate
04:54AM 56.5097 36.3641 320° Northwest  Level FlightAware Approximate
04:55AM 56.6005 36.2255 320° Northwest  Level FlightAware Approximate
04:56AM 56.6913 36.0863 320° Northwest  Level FlightAware Approximate
04:57AM 56.7818 35.9464 320° Northwest  Level FlightAware Approximate
04:58AM 56.8722 35.8058 320° Northwest  Level FlightAware Approximate
04:59AM 56.9625 35.6645 320° Northwest  Level FlightAware Approximate
05:00AM 57.0526 35.5225 319° Northwest  Level FlightAware Approximate
05:01AM 57.1425 35.3799 319° Northwest  Level FlightAware Approximate
05:02AM 57.2323 35.2366 319° Northwest  Level FlightAware Approximate
05:03AM 57.3219 35.0925 319° Northwest  Level FlightAware Approximate
05:04AM 57.4113 34.9478 319° Northwest  Level FlightAware Approximate
05:05AM 57.5006 34.8023 319° Northwest  Level FlightAware Approximate
05:06AM 57.5897 34.6562 319° Northwest  Level FlightAware Approximate
05:07AM 57.5006 34.8023 139° Southeast  Level FlightAware Approximate
05:08AM 57.5679 34.6201 314° West  Level Estimated
05:09AM 57.6502 34.4605 314° West  Level FlightAware Approximate
05:10AM 57.7324 34.3002 314° West  Level FlightAware Approximate
05:11AM 57.8143 34.1391 314° West  Level FlightAware Approximate
05:12AM 57.8961 33.9774 314° West  Level FlightAware Approximate
05:13AM 57.9776 33.8148 313° West  Level FlightAware Approximate
05:14AM 58.0590 33.6516 313° West  Level FlightAware Approximate
05:15AM 58.1401 33.4876 313° West  Level FlightAware Approximate
05:16AM 58.2210 33.3228 313° West  Level FlightAware Approximate
05:17AM 58.3017 33.1573 313° West  Level FlightAware Approximate
05:18AM 58.3822 32.9911 313° West  Level FlightAware Approximate
05:19AM 58.4624 32.8241 313° West  Level FlightAware Approximate
05:20AM 58.5425 32.6563 312° West  Level FlightAware Approximate
05:21AM 58.6223 32.4878 312° West  Level FlightAware Approximate
05:22AM 58.7019 32.3184 312° West  Level FlightAware Approximate
05:23AM 58.7813 32.1483 312° West  Level FlightAware Approximate
05:24AM 58.8605 31.9775 312° West  Level FlightAware Approximate
05:25AM 58.9394 31.8058 312° West  Level FlightAware Approximate
05:26AM 59.0181 31.6334 312° West  Level FlightAware Approximate
05:27AM 59.0966 31.4602 311° West  Level FlightAware Approximate
05:28AM 59.1749 31.2861 311° West  Level FlightAware Approximate
05:29AM 59.2529 31.1113 311° West  Level FlightAware Approximate
05:30AM 59.3306 30.9357 311° West  Level FlightAware Approximate
05:31AM 59.4082 30.7593 311° West  Level FlightAware Approximate
05:32AM 59.4855 30.5821 311° West  Level FlightAware Approximate
05:33AM 59.5625 30.4040 311° West  Level FlightAware Approximate
05:34AM 59.6394 30.2251 310° West  Level FlightAware Approximate
05:35AM 59.7159 30.0455 310° West  Level FlightAware Approximate
05:36AM 59.7923 29.8650 310° West  Level FlightAware Approximate
05:37AM 59.8683 29.6836 310° West  Level FlightAware Approximate
05:38AM 59.9442 29.5015 310° West  Level FlightAware Approximate
05:39AM 60.0197 29.3185 310° West  Level FlightAware Approximate
05:40AM 60.0951 29.1347 309° West  Level FlightAware Approximate
05:41AM 60.1701 28.9500 309° West  Level FlightAware Approximate
05:42AM 60.2449 28.7645 309° West  Level FlightAware Approximate
05:43AM 60.3195 28.5781 309° West  Level FlightAware Approximate
05:44AM 60.3937 28.3909 309° West  Level FlightAware Approximate
05:45AM 60.4678 28.2028 309° West  Level FlightAware Approximate
05:46AM 60.5415 28.0139 308° West  Level FlightAware Approximate
05:47AM 60.6150 27.8241 308° West  Level FlightAware Approximate
05:48AM 60.6882 27.6335 308° West  Level FlightAware Approximate
05:49AM 60.7612 27.4420 308° West  Level FlightAware Approximate
05:50AM 60.8338 27.2496 308° West  Level FlightAware Approximate
05:51AM 60.9062 27.0563 308° West  Level FlightAware Approximate
05:52AM 60.9784 26.8622 307° West  Level FlightAware Approximate
05:53AM 61.0502 26.6671 307° West  Level FlightAware Approximate
05:54AM 61.1217 26.4712 307° West  Level FlightAware Approximate
05:55AM 61.1930 26.2744 307° West  Level FlightAware Approximate
05:56AM 61.2640 26.0767 307° West  Level FlightAware Approximate
05:57AM 61.3347 25.8782 307° West  Level FlightAware Approximate
05:58AM 61.4051 25.6787 306° West  Level FlightAware Approximate
05:59AM 61.4752 25.4783 306° West  Level FlightAware Approximate
06:00AM 61.5450 25.2770 306° West  Level FlightAware Approximate
06:01AM 61.6145 25.0748 306° West  Level FlightAware Approximate
06:02AM 61.6837 24.8717 306° West  Level FlightAware Approximate
06:03AM 61.7526 24.6677 306° West  Level FlightAware Approximate
06:04AM 61.8213 24.4628 305° West  Level FlightAware Approximate
06:05AM 61.8895 24.2570 305° West  Level FlightAware Approximate
06:06AM 61.9575 24.0502 305° West  Level FlightAware Approximate
06:07AM 62.0252 23.8426 305° West  Level FlightAware Approximate
06:08AM 62.0926 23.6340 305° West  Level FlightAware Approximate
06:09AM 62.1421 23.4032 304° West  Level Estimated
06:10AM 62.2085 23.1925 304° West  Level FlightAware Approximate
06:11AM 62.2746 22.9807 304° West  Level FlightAware Approximate
06:12AM 62.3404 22.7681 304° West  Level FlightAware Approximate
06:13AM 62.4058 22.5545 304° West  Level FlightAware Approximate
06:14AM 62.4709 22.3400 303° West  Level FlightAware Approximate
06:15AM 62.5357 22.1246 303° West  Level FlightAware Approximate
06:16AM 62.6002 21.9082 303° West  Level FlightAware Approximate
06:17AM 62.6643 21.6909 303° West  Level FlightAware Approximate
06:18AM 62.7281 21.4726 303° West  Level FlightAware Approximate
06:19AM 62.7915 21.2534 302° West  Level FlightAware Approximate
06:20AM 62.8546 21.0333 302° West  Level FlightAware Approximate
06:21AM 62.9174 20.8122 302° West  Level FlightAware Approximate
06:22AM 62.9798 20.5902 302° West  Level FlightAware Approximate
06:23AM 63.0419 20.3672 302° West  Level FlightAware Approximate
06:24AM 63.1036 20.1432 301° West  Level FlightAware Approximate
06:25AM 63.1649 19.9184 301° West  Level FlightAware Approximate
06:26AM 63.2259 19.6925 301° West  Level FlightAware Approximate
06:27AM 63.2866 19.4657 301° West  Level FlightAware Approximate
06:28AM 63.3468 19.2380 301° West  Level FlightAware Approximate
06:29AM 63.4067 19.0093 300° West  Level FlightAware Approximate
06:30AM 63.4663 18.7797 300° West  Level FlightAware Approximate
06:31AM 63.5255 18.5491 300° West  Level FlightAware Approximate
06:32AM 63.5843 18.3175 300° West  Level FlightAware Approximate
06:33AM 63.6427 18.0850 300° West  Level FlightAware Approximate
06:34AM 63.7007 17.8515 299° West  Level FlightAware Approximate
06:35AM 63.7584 17.6171 299° West  Level FlightAware Approximate
06:36AM 63.8157 17.3817 299° West  Level FlightAware Approximate
06:37AM 63.8726 17.1454 299° West  Level FlightAware Approximate
06:38AM 63.9291 16.9081 299° West  Level FlightAware Approximate
06:39AM 63.9853 16.6698 298° West  Level FlightAware Approximate
06:40AM 64.0410 16.4306 298° West  Level FlightAware Approximate
06:41AM 64.0963 16.1905 298° West  Level FlightAware Approximate
06:42AM 64.1513 15.9494 298° West  Level FlightAware Approximate
06:43AM 64.2058 15.7073 297° West  Level FlightAware Approximate
06:44AM 64.2600 15.4643 297° West  Level FlightAware Approximate
06:45AM 64.3137 15.2203 297° West  Level FlightAware Approximate
06:46AM 64.3670 14.9754 297° West  Level FlightAware Approximate
06:47AM 64.4200 14.7295 297° West  Level FlightAware Approximate
06:48AM 64.4725 14.4827 296° West  Level FlightAware Approximate
06:49AM 64.5246 14.2350 296° West  Level FlightAware Approximate
06:50AM 64.5762 13.9863 296° West  Level FlightAware Approximate
06:51AM 64.6275 13.7366 296° West  Level FlightAware Approximate
06:52AM 64.6783 13.4860 295° West  Level FlightAware Approximate
06:53AM 64.7287 13.2345 295° West  Level FlightAware Approximate
06:54AM 64.7787 12.9821 295° West  Level FlightAware Approximate
06:55AM 64.8283 12.7287 295° West  Level FlightAware Approximate
06:56AM 64.8774 12.4743 295° West  Level FlightAware Approximate
06:57AM 64.9261 12.2191 294° West  Level FlightAware Approximate
06:58AM 64.9743 11.9629 294° West  Level FlightAware Approximate
06:59AM 65.0221 11.7058 294° West  Level FlightAware Approximate
07:00AM 65.0695 11.4478 294° West  Level FlightAware Approximate
07:01AM 65.1164 11.1889 293° West  Level FlightAware Approximate
07:02AM 65.1628 10.9291 293° West  Level FlightAware Approximate
07:03AM 65.2089 10.6683 293° West  Level FlightAware Approximate
07:04AM 65.2544 10.4067 293° West  Level FlightAware Approximate
07:05AM 65.2995 10.1441 292° West  Level FlightAware Approximate
07:06AM 65.3442 9.8807 292° West  Level FlightAware Approximate
07:07AM 65.3884 9.6163 292° West  Level FlightAware Approximate
07:08AM 65.4321 9.3511 292° West  Level FlightAware Approximate
07:09AM 65.4753 9.0850 291° West  Level FlightAware Approximate
07:10AM 65.4984 8.8043 291° West  Level Estimated
07:11AM 65.5422 8.5381 292° West  Level FlightAware Approximate
07:12AM 65.5856 8.2710 292° West  Level FlightAware Approximate
07:13AM 65.6285 8.0030 291° West  Level FlightAware Approximate
07:14AM 65.6710 7.7341 291° West  Level FlightAware Approximate
07:15AM 65.7129 7.4644 291° West  Level FlightAware Approximate
07:16AM 65.7544 7.1937 291° West  Level FlightAware Approximate
07:17AM 65.7954 6.9222 290° West  Level FlightAware Approximate
07:18AM 65.8360 6.6499 290° West  Level FlightAware Approximate
07:19AM 65.8760 6.3767 290° West  Level FlightAware Approximate
07:20AM 65.9156 6.1026 290° West  Level FlightAware Approximate
07:21AM 65.9546 5.8277 289° West  Level FlightAware Approximate
07:22AM 65.9932 5.5520 289° West  Level FlightAware Approximate
07:23AM 66.0313 5.2754 289° West  Level FlightAware Approximate
07:24AM 66.0689 4.9980 289° West  Level FlightAware Approximate
07:25AM 66.1060 4.7198 288° West  Level FlightAware Approximate
07:26AM 66.1206 4.4289 287° West  Level Estimated
07:27AM 66.1578 4.1503 288° West  Level FlightAware Approximate
07:28AM 66.1946 3.8708 288° West  Level FlightAware Approximate
07:29AM 66.2309 3.5906 288° West  Level FlightAware Approximate
07:30AM 66.2666 3.3096 288° West  Level FlightAware Approximate
07:31AM 66.3019 3.0277 287° West  Level FlightAware Approximate
07:32AM 66.3367 2.7451 287° West  Level FlightAware Approximate
07:33AM 66.3474 2.4505 285° West  Level Estimated
07:34AM 66.3809 2.1664 287° West  Level FlightAware Approximate
07:35AM 66.4139 1.8816 286° West  Level FlightAware Approximate
07:36AM 66.4463 1.5961 286° West  Level FlightAware Approximate
07:37AM 66.4782 1.3097 286° West  Level FlightAware Approximate
07:38AM 66.5097 1.0227 285° West  Level FlightAware Approximate
07:39AM 66.5405 0.7350 285° West  Level FlightAware Approximate
07:40AM 66.5709 0.4465 285° West  Level FlightAware Approximate
07:41AM 66.5771 0.1483 283° West  Level Estimated
07:42AM 66.6040 -0.1427 283° West  Level FlightAware Approximate
07:43AM 66.6303 -0.4344 283° West  Level FlightAware Approximate
07:44AM 66.6561 -0.7266 283° West  Level FlightAware Approximate
07:45AM 66.6814 -1.0195 282° West  Level FlightAware Approximate
07:46AM 66.7061 -1.3130 282° West  Level FlightAware Approximate
07:47AM 66.7303 -1.6070 282° West  Level FlightAware Approximate
07:48AM 66.7539 -1.9016 282° West  Level FlightAware Approximate
07:49AM 66.7769 -2.1968 281° West  Level FlightAware Approximate
07:50AM 66.7994 -2.4925 281° West  Level FlightAware Approximate
07:51AM 66.8214 -2.7888 281° West  Level FlightAware Approximate
07:52AM 66.8428 -3.0856 281° West  Level FlightAware Approximate
07:53AM 66.8636 -3.3829 280° West  Level FlightAware Approximate
07:54AM 66.8839 -3.6807 280° West  Level FlightAware Approximate
07:55AM 66.9037 -3.9790 280° West  Level FlightAware Approximate
07:56AM 66.9228 -4.2778 279° West  Level FlightAware Approximate
07:57AM 66.9414 -4.5770 279° West  Level FlightAware Approximate
07:58AM 66.9595 -4.8766 279° West  Level FlightAware Approximate
07:59AM 66.9770 -5.1768 279° West  Level FlightAware Approximate
08:00AM 66.9939 -5.4773 278° West  Level FlightAware Approximate
08:01AM 67.0102 -5.7782 278° West  Level FlightAware Approximate
08:02AM 67.0260 -6.0796 278° West  Level FlightAware Approximate
08:03AM 67.0412 -6.3813 277° West  Level FlightAware Approximate
08:04AM 67.0558 -6.6834 277° West  Level FlightAware Approximate
08:05AM 67.0699 -6.9859 277° West  Level FlightAware Approximate
08:06AM 67.0833 -7.2887 277° West  Level FlightAware Approximate
08:07AM 67.0963 -7.5918 276° West  Level FlightAware Approximate
08:08AM 67.1086 -7.8952 276° West  Level FlightAware Approximate
08:09AM 67.1203 -8.1990 276° West  Level FlightAware Approximate
08:10AM 67.1315 -8.5030 276° West  Level FlightAware Approximate
08:11AM 67.1421 -8.8074 275° West  Level FlightAware Approximate
08:12AM 67.1521 -9.1119 275° West  Level FlightAware Approximate
08:13AM 67.1616 -9.4167 275° West  Level FlightAware Approximate
08:14AM 67.1704 -9.7218 274° West  Level FlightAware Approximate
08:15AM 67.1787 -10.0271 274° West  Level FlightAware Approximate
08:16AM 67.1864 -10.3325 274° West  Level FlightAware Approximate
08:17AM 67.1935 -10.6382 274° West  Level FlightAware Approximate
08:18AM 67.2001 -10.9440 273° West  Level FlightAware Approximate
08:19AM 67.2060 -11.2500 273° West  Level FlightAware Approximate
08:20AM 67.2114 -11.5561 273° West  Level FlightAware Approximate
08:21AM 67.2161 -11.8624 272° West  Level FlightAware Approximate
08:22AM 67.2204 -12.1688 272° West  Level FlightAware Approximate
08:23AM 67.2240 -12.4752 272° West  Level FlightAware Approximate
08:24AM 67.2270 -12.7818 272° West  Level FlightAware Approximate
08:25AM 67.2294 -13.0884 271° West  Level FlightAware Approximate
08:26AM 67.2313 -13.3951 271° West  Level FlightAware Approximate
08:27AM 67.2325 -13.7018 271° West  Level FlightAware Approximate
08:28AM 67.2109 -14.0033 270° West  Level Estimated
08:29AM 67.2115 -14.3098 270° West  Level FlightAware Approximate
08:30AM 67.2115 -14.6162 270° West  Level FlightAware Approximate
08:31AM 67.2110 -14.9227 270° West  Level FlightAware Approximate
08:32AM 67.2098 -15.2292 270° West  Level FlightAware Approximate
08:33AM 67.2081 -15.5356 269° West  Level FlightAware Approximate
08:34AM 67.2057 -15.8419 269° West  Level FlightAware Approximate
08:35AM 67.2029 -16.1482 269° West  Level FlightAware Approximate
08:36AM 67.1994 -16.4545 268° West  Level FlightAware Approximate
08:37AM 67.1953 -16.7606 268° West  Level FlightAware Approximate
08:38AM 67.1907 -17.0666 268° West  Level FlightAware Approximate
08:39AM 67.1854 -17.3725 268° West  Level FlightAware Approximate
08:40AM 67.1796 -17.6782 267° West  Level FlightAware Approximate
08:41AM 67.1732 -17.9838 267° West  Level FlightAware Approximate
08:42AM 67.1662 -18.2892 267° West  Level FlightAware Approximate
08:43AM 67.1586 -18.5944 266° West  Level FlightAware Approximate
08:44AM 67.1274 -18.8893 265° West  Level Estimated
08:45AM 67.1179 -19.1937 266° West  Level FlightAware Approximate
08:46AM 67.1078 -19.4978 265° West  Level FlightAware Approximate
08:47AM 67.0971 -19.8017 265° West  Level FlightAware Approximate
08:48AM 67.0858 -20.1053 265° West  Level FlightAware Approximate
08:49AM 67.0740 -20.4086 264° West  Level FlightAware Approximate
08:50AM 67.0616 -20.7115 264° West  Level FlightAware Approximate
08:51AM 67.0486 -21.0142 264° West  Level FlightAware Approximate
08:52AM 67.0350 -21.3165 264° West  Level FlightAware Approximate
08:53AM 67.0209 -21.6185 263° West  Level FlightAware Approximate
08:54AM 67.0062 -21.9202 263° West  Level FlightAware Approximate
08:55AM 66.9909 -22.2215 263° West  Level FlightAware Approximate
08:56AM 66.9750 -22.5223 262° West  Level FlightAware Approximate
08:57AM 66.9586 -22.8228 262° West  Level FlightAware Approximate
08:58AM 66.9416 -23.1229 262° West  Level FlightAware Approximate
08:59AM 66.9241 -23.4225 262° West  Level FlightAware Approximate
09:00AM 66.9060 -23.7218 261° West  Level FlightAware Approximate
09:01AM 66.8873 -24.0205 261° West  Level FlightAware Approximate
09:02AM 66.8680 -24.3188 261° West  Level FlightAware Approximate
09:03AM 66.8482 -24.6166 261° West  Level FlightAware Approximate
09:04AM 66.8279 -24.9140 260° West  Level FlightAware Approximate
09:05AM 66.8070 -25.2108 260° West  Level FlightAware Approximate
09:06AM 66.7855 -25.5071 260° West  Level FlightAware Approximate
09:07AM 66.7635 -25.8029 259° West  Level FlightAware Approximate
09:08AM 66.7409 -26.0982 259° West  Level FlightAware Approximate
09:09AM 66.7178 -26.3929 259° West  Level FlightAware Approximate
09:10AM 66.6941 -26.6870 259° West  Level FlightAware Approximate
09:11AM 66.6698 -26.9806 258° West  Level FlightAware Approximate
09:12AM 66.6451 -27.2736 258° West  Level FlightAware Approximate
09:13AM 66.6198 -27.5660 258° West  Level FlightAware Approximate
09:14AM 66.5939 -27.8578 258° West  Level FlightAware Approximate
09:15AM 66.5675 -28.1490 257° West  Level FlightAware Approximate
09:16AM 66.5406 -28.4396 257° West  Level FlightAware Approximate
09:17AM 66.5131 -28.7295 257° West  Level FlightAware Approximate
09:18AM 66.4851 -29.0188 256° West  Level FlightAware Approximate
09:19AM 66.4565 -29.3074 256° West  Level FlightAware Approximate
09:20AM 66.4274 -29.5954 256° West  Level FlightAware Approximate
09:21AM 66.3978 -29.8827 256° West  Level FlightAware Approximate
09:22AM 66.3677 -30.1693 255° West  Level FlightAware Approximate
09:23AM 66.3371 -30.4552 255° West  Level FlightAware Approximate
09:24AM 66.3059 -30.7404 255° West  Level FlightAware Approximate
09:25AM 66.2742 -31.0249 255° West  Level FlightAware Approximate
09:26AM 66.2420 -31.3087 254° West  Level FlightAware Approximate
09:27AM 66.2092 -31.5918 254° West  Level FlightAware Approximate
09:28AM 66.1760 -31.8741 254° West  Level FlightAware Approximate
09:29AM 66.1422 -32.1556 254° West  Level FlightAware Approximate
09:30AM 66.1079 -32.4364 253° West  Level FlightAware Approximate
09:31AM 66.0732 -32.7165 253° West  Level FlightAware Approximate
09:32AM 66.0379 -32.9958 253° West  Level FlightAware Approximate
09:33AM 66.0021 -33.2742 253° West  Level FlightAware Approximate
09:34AM 65.9658 -33.5519 252° West  Level FlightAware Approximate
09:35AM 65.9290 -33.8289 252° West  Level FlightAware Approximate
09:36AM 65.8917 -34.1050 252° West  Level FlightAware Approximate
09:37AM 65.8539 -34.3803 252° West  Level FlightAware Approximate
09:38AM 65.8156 -34.6548 251° West  Level FlightAware Approximate
09:39AM 65.7769 -34.9284 251° West  Level FlightAware Approximate
09:40AM 65.7376 -35.2013 251° West  Level FlightAware Approximate
09:41AM 65.6979 -35.4733 251° West  Level FlightAware Approximate
09:42AM 65.6576 -35.7445 250° West  Level FlightAware Approximate
09:43AM 65.6169 -36.0148 250° West  Level FlightAware Approximate
09:44AM 65.5758 -36.2843 250° West  Level FlightAware Approximate
09:45AM 65.5341 -36.5529 250° West  Level FlightAware Approximate
09:46AM 65.4920 -36.8206 249° West  Level FlightAware Approximate
09:47AM 65.4494 -37.0875 249° West  Level FlightAware Approximate
09:48AM 65.4063 -37.3535 249° West  Level FlightAware Approximate
09:49AM 65.3628 -37.6187 249° West  Level FlightAware Approximate
09:50AM 65.3188 -37.8829 248° West  Level FlightAware Approximate
09:51AM 65.2743 -38.1463 248° West  Level FlightAware Approximate
09:52AM 65.2294 -38.4088 248° West  Level FlightAware Approximate
09:53AM 65.1840 -38.6704 248° West  Level FlightAware Approximate
09:54AM 65.1382 -38.9311 247° West  Level FlightAware Approximate
09:55AM 65.0919 -39.1909 247° West  Level FlightAware Approximate
09:56AM 65.0452 -39.4497 247° West  Level FlightAware Approximate
09:57AM 64.9980 -39.7077 247° West  Level FlightAware Approximate
09:58AM 64.9504 -39.9648 246° West  Level FlightAware Approximate
09:59AM 64.9023 -40.2209 246° West  Level FlightAware Approximate
10:00AM 64.8538 -40.4761 246° West  Level FlightAware Approximate
10:01AM 64.8049 -40.7304 246° West  Level FlightAware Approximate
10:02AM 64.7555 -40.9838 246° West  Level FlightAware Approximate
10:03AM 64.7057 -41.2362 245° Southwest  Level FlightAware Approximate
10:04AM 64.6555 -41.4877 245° Southwest  Level FlightAware Approximate
10:05AM 64.6049 -41.7383 245° Southwest  Level FlightAware Approximate
10:06AM 64.5538 -41.9879 245° Southwest  Level FlightAware Approximate
10:07AM 64.5023 -42.2366 244° Southwest  Level FlightAware Approximate
10:08AM 64.4504 -42.4844 244° Southwest  Level FlightAware Approximate
10:09AM 64.3981 -42.7312 244° Southwest  Level FlightAware Approximate
10:10AM 64.3453 -42.9771 244° Southwest  Level FlightAware Approximate
10:11AM 64.2922 -43.2221 244° Southwest  Level FlightAware Approximate
10:12AM 64.2386 -43.4660 243° Southwest  Level FlightAware Approximate
10:13AM 64.1847 -43.7091 243° Southwest  Level FlightAware Approximate
10:14AM 64.1303 -43.9512 243° Southwest  Level FlightAware Approximate
10:15AM 64.0755 -44.1923 243° Southwest  Level FlightAware Approximate
10:16AM 64.0204 -44.4325 242° Southwest  Level FlightAware Approximate
10:17AM 63.9648 -44.6718 242° Southwest  Level FlightAware Approximate
10:18AM 63.9089 -44.9101 242° Southwest  Level FlightAware Approximate
10:19AM 63.8525 -45.1474 242° Southwest  Level FlightAware Approximate
10:20AM 63.7958 -45.3838 242° Southwest  Level FlightAware Approximate
10:21AM 63.7387 -45.6193 241° Southwest  Level FlightAware Approximate
10:22AM 63.6812 -45.8537 241° Southwest  Level FlightAware Approximate
10:23AM 63.6233 -46.0873 241° Southwest  Level FlightAware Approximate
10:24AM 63.5651 -46.3199 241° Southwest  Level FlightAware Approximate
10:25AM 63.5065 -46.5515 241° Southwest  Level FlightAware Approximate
10:26AM 63.4475 -46.7822 240° Southwest  Level FlightAware Approximate
10:27AM 63.3881 -47.0119 240° Southwest  Level FlightAware Approximate
10:28AM 63.3284 -47.2407 240° Southwest  Level FlightAware Approximate
10:29AM 63.2683 -47.4685 240° Southwest  Level FlightAware Approximate
10:30AM 63.2078 -47.6954 239° Southwest  Level FlightAware Approximate
10:31AM 63.1470 -47.9213 239° Southwest  Level FlightAware Approximate
10:32AM 63.0858 -48.1463 239° Southwest  Level FlightAware Approximate
10:33AM 63.0243 -48.3703 239° Southwest  Level FlightAware Approximate
10:34AM 62.9624 -48.5934 239° Southwest  Level FlightAware Approximate
10:35AM 62.9001 -48.8155 238° Southwest  Level FlightAware Approximate
10:36AM 62.8376 -49.0367 238° Southwest  Level FlightAware Approximate
10:37AM 62.7746 -49.2570 238° Southwest  Level FlightAware Approximate
10:38AM 62.7114 -49.4763 238° Southwest  Level FlightAware Approximate
10:38AM 63.8667 -54.4000 237° Southwest 440 506 38,000  Level Gander Center
10:39AM 62.6478 -49.6946 238° Southwest  Level FlightAware Approximate
10:39AM 63.8167 -54.6500 246° West 450 518 38,000  Level Gander Center
10:40AM 62.5838 -49.9121 237° Southwest  Level FlightAware Approximate
10:40AM 63.7500 -54.8833 237° Southwest 440 506 38,000  Level Gander Center
10:41AM 62.5195 -50.1286 237° Southwest  Level FlightAware Approximate
10:41AM 63.6667 -55.1167 231° Southwest 450 518 38,000  Level Gander Center
10:42AM 62.4549 -50.3441 237° Southwest  Level FlightAware Approximate
10:43AM 62.3899 -50.5588 237° Southwest  Level FlightAware Approximate
10:43AM 63.5500 -55.5500 239° Southwest 450 518 38,000  Level Gander Center
10:44AM 62.3247 -50.7725 237° Southwest  Level FlightAware Approximate
10:44AM 63.4833 -55.7500 233° Southwest 450 518 38,000  Level Gander Center
10:45AM 63.4000 -56.0000 233° Southwest 450 518 38,000  Level Gander Center
10:46AM 63.3500 -56.2333 245° Southwest 450 518 38,000  Level Gander Center
10:47AM 63.2667 -56.5000 235° Southwest 450 518 38,000  Level Gander Center
10:48AM 63.1833 -56.7000 227° Southwest 450 518 38,000  Level Gander Center
10:49AM 63.1000 -56.9333 232° Southwest 440 506 38,000  Level Gander Center
10:50AM 63.0500 -57.1500 243° Southwest 450 518 38,000  Level Gander Center
10:51AM 62.9667 -57.3833 232° Southwest 450 518 38,000  Level Gander Center
10:52AM 62.9167 -57.6167 245° Southwest 450 518 38,000  Level Gander Center
10:53AM 62.8333 -57.8333 230° Southwest 450 518 38,000  Level Gander Center
10:54AM 62.7667 -58.0667 238° Southwest 450 518 38,000  Level Gander Center
11:01AM 62.3167 -59.3500 233° Southwest 220 253 38,000  Level Montreal Center
11:01AM 62.2833 -59.5333 249° West 360 414 38,000  Level Gander Center
11:02AM 62.2000 -59.7500 231° Southwest 420 483 38,000  Level Gander Center
11:03AM 62.1842 -59.7884 234° Southwest  Level FlightAware Approximate
11:03AM 62.1333 -59.9667 237° Southwest 420 483 38,000  Level Gander Center
11:04AM 62.1118 -59.9934 233° Southwest  Level FlightAware Approximate
11:05AM 62.0392 -60.1974 233° Southwest  Level FlightAware Approximate
11:05AM 62.0333 -60.1667 223° Southwest 430 495 38,000  Level Montreal Center
11:06AM 61.9663 -60.4004 233° Southwest  Level FlightAware Approximate
11:06AM 61.9500 -60.3833 231° Southwest 440 506 38,000  Level Montreal Center
11:07AM 61.8500 -60.7833 242° Southwest 440 506 38,000  Level Gander Center
11:08AM 61.7833 -61.0000 237° Southwest 440 506 38,000  Level Gander Center
11:09AM 61.7000 -61.1833 226° Southwest 430 495 38,000  Level Gander Center
11:10AM 61.6333 -61.3833 235° Southwest 430 495 38,000  Level Gander Center
11:11AM 61.5500 -61.6000 231° Southwest 440 506 38,000  Level Gander Center
11:12AM 61.4833 -61.8000 235° Southwest 440 506 38,000  Level Gander Center
11:13AM 61.3833 -61.9500 216° Southwest 430 495 38,000  Level Montreal Center
11:14AM 61.3000 -62.1667 231° Southwest 430 495 38,000  Level Montreal Center
11:15AM 61.2500 -62.3833 244° Southwest 420 483 38,000  Level Gander Center
11:16AM 61.1667 -62.5833 229° Southwest 430 495 38,000  Level Gander Center
11:17AM 61.0833 -62.7667 227° Southwest 460 529 38,000  Level Gander Center
11:18AM 61.0167 -62.9667 236° Southwest 440 506 38,000  Level Gander Center
11:19AM 60.9333 -63.1667 229° Southwest 430 495 38,000  Level Gander Center
11:20AM 60.8667 -63.3333 231° Southwest 430 495 38,000  Level Gander Center
11:21AM 60.8000 -63.5333 236° Southwest 450 518 38,000  Level Gander Center
11:22AM 60.7167 -63.7333 230° Southwest 430 495 38,000  Level Gander Center
11:23AM 60.6167 -63.9167 222° Southwest 430 495 38,000  Level Gander Center
11:24AM 60.5500 -64.0833 231° Southwest 430 495 38,000  Level Gander Center
11:25AM 60.4833 -64.2833 236° Southwest 430 495 38,000  Level Gander Center
11:26AM 60.4000 -64.4500 225° Southwest 430 495 38,000  Level Gander Center
11:27AM 60.3333 -64.6333 234° Southwest 430 495 38,000  Level Gander Center
11:28AM 60.2333 -64.8333 225° Southwest 440 506 38,000  Level Gander Center
11:29AM 60.1667 -65.0333 236° Southwest 440 506 38,000  Level Gander Center
11:30AM 60.0833 -65.1833 222° Southwest 440 506 38,000  Level Gander Center
11:31AM 59.9833 -65.3333 217° Southwest 440 506 38,000  Level Gander Center
11:32AM 59.9000 -65.5000 225° Southwest 440 506 38,000  Level Gander Center
11:33AM 59.8167 -65.6833 228° Southwest 450 518 38,000  Level Gander Center
11:34AM 59.7167 -65.8333 217° Southwest 450 518 38,000  Level Gander Center
11:35AM 59.6167 -65.9833 217° Southwest 450 518 38,000  Level Gander Center
11:36AM 59.5333 -66.1667 228° Southwest 440 506 38,000  Level Gander Center
11:37AM 59.4333 -66.3167 217° Southwest 440 506 38,000  Level Gander Center
11:38AM 59.3333 -66.4667 217° Southwest 440 506 38,000  Level Gander Center
11:39AM 59.2500 -66.6167 223° Southwest 440 506 38,000  Level Gander Center
11:40AM 59.1500 -66.7667 218° Southwest 440 506 38,000  Level Gander Center
11:41AM 59.0667 -66.9167 223° Southwest 440 506 38,000  Level Gander Center
11:42AM 58.9667 -67.0667 218° Southwest 440 506 38,000  Level Gander Center
11:43AM 58.8667 -67.2167 218° Southwest 430 495 38,000  Level Gander Center
11:44AM 58.7833 -67.3667 223° Southwest 430 495 38,000  Level Gander Center
11:45AM 58.6833 -67.5333 221° Southwest 430 495 38,000  Level Gander Center
11:46AM 58.6000 -67.6833 223° Southwest 430 495 38,000  Level Gander Center
11:47AM 58.5167 -67.8333 223° Southwest 430 495 38,000  Level Gander Center
11:48AM 58.4000 -67.9667 211° Southwest 440 506 38,000  Level Gander Center
11:49AM 58.3167 -68.1167 223° Southwest 440 506 38,000  Level Gander Center
11:50AM 58.2167 -68.2833 221° Southwest 450 518 38,000  Level Gander Center
11:51AM 58.1333 -68.4000 216° Southwest 430 495 38,000  Level Gander Center
11:52AM 58.0333 -68.5333 215° Southwest 400 460 38,000  Level Gander Center
11:53AM 57.9333 -68.6667 215° Southwest 440 506 38,000  Level Gander Center
11:54AM 57.8333 -68.8167 219° Southwest 430 495 38,000  Level Gander Center
11:55AM 57.7500 -68.9167 213° Southwest 430 495 38,000  Level Gander Center
11:56AM 57.6500 -69.0500 216° Southwest 430 495 38,000  Level Gander Center
11:57AM 57.5500 -69.1833 216° Southwest 430 495 38,000  Level Gander Center
11:58AM 57.4500 -69.3167 216° Southwest 430 495 38,000  Level Gander Center
11:59AM 57.3667 -69.4667 224° Southwest 430 495 38,000  Level Gander Center
12:00PM 57.2500 -69.5667 205° Southwest 430 495 38,000  Level Gander Center
12:01PM 57.1667 -69.7000 221° Southwest 430 495 38,000  Level Gander Center
12:02PM 57.0667 -69.8333 216° Southwest 430 495 38,000  Level Gander Center
12:03PM 56.9833 -69.9667 221° Southwest 430 495 38,000  Level Gander Center
12:04PM 56.8667 -70.0833 209° Southwest 430 495 38,000  Level Gander Center
12:05PM 56.7833 -70.2000 218° Southwest 430 495 38,000  Level Gander Center
12:06PM 56.6667 -70.3167 209° Southwest 430 495 38,000  Level Gander Center
12:07PM 56.5833 -70.4500 221° Southwest 430 495 38,000  Level Gander Center
12:08PM 56.4833 -70.5833 216° Southwest 430 495 38,000  Level Gander Center
12:09PM 56.3667 -70.6833 205° Southwest 430 495 38,000  Level Gander Center
12:10PM 56.2833 -70.8000 218° Southwest 430 495 38,000  Level Gander Center
12:11PM 56.1833 -70.9333 217° Southwest 430 495 38,000  Level Gander Center
12:12PM 56.1000 -71.0667 222° Southwest 430 495 38,000  Level Gander Center
12:13PM 55.9833 -71.1500 202° Southwest 430 495 38,000  Level Gander Center
12:14PM 55.8833 -71.2833 217° Southwest 430 495 38,000  Level Gander Center
12:15PM 55.8000 -71.4000 218° Southwest 420 483 38,000  Level Gander Center
12:16PM 55.7000 -71.5000 209° Southwest 430 495 38,000  Level Gander Center
12:17PM 55.6000 -71.6167 213° Southwest 430 495 38,000  Level Gander Center
12:18PM 55.5000 -71.7500 217° Southwest 420 483 38,000  Level Gander Center
12:19PM 55.4000 -71.8667 214° Southwest 420 483 38,000  Level Gander Center
12:20PM 55.3000 -71.9833 214° Southwest 420 483 38,000  Level Gander Center
12:21PM 55.2000 -72.0833 210° Southwest 420 483 38,000  Level Gander Center
12:22PM 55.1000 -72.2000 214° Southwest 420 483 38,000  Level Gander Center
12:23PM 55.0167 -72.3000 215° Southwest 420 483 38,000  Level Gander Center
12:24PM 54.9167 -72.4167 214° Southwest 420 483 38,000  Level Gander Center
12:25PM 54.8167 -72.5333 214° Southwest 420 483 38,000  Level Gander Center
12:26PM 54.7167 -72.6333 210° Southwest 420 483 38,000  Level Gander Center
12:27PM 54.6167 -72.7500 214° Southwest 420 483 38,000  Level Gander Center
12:28PM 54.5167 -72.8667 214° Southwest 420 483 38,000  Level Gander Center
12:29PM 54.4333 -72.9500 210° Southwest 420 483 38,000  Level Gander Center
12:30PM 54.3333 -73.0667 214° Southwest 420 483 38,000  Level Gander Center
12:31PM 54.2167 -73.1833 210° Southwest 420 483 38,000  Level Gander Center
12:32PM 54.1333 -73.3000 219° Southwest 420 483 38,000  Level Gander Center
12:33PM 54.0333 -73.3833 206° Southwest 420 483 38,000  Level Gander Center
12:34PM 53.9333 -73.5000 214° Southwest 420 483 38,000  Level Gander Center
12:35PM 53.8333 -73.5833 206° Southwest 420 483 38,000  Level Gander Center
12:36PM 53.7333 -73.7000 215° Southwest 420 483 38,000  Level Gander Center
12:37PM 53.6333 -73.7833 206° Southwest 430 495 38,000  Level Gander Center
12:38PM 53.5333 -73.9000 215° Southwest 420 483 38,000  Level Gander Center
12:39PM 53.4167 -73.9833 203° Southwest 430 495 38,000  Level Gander Center
12:40PM 53.3167 -74.0667 206° Southwest 430 495 38,000  Level Gander Center
12:41PM 53.2167 -74.1500 207° Southwest 430 495 38,000  Level Gander Center
12:42PM 53.1000 -74.2500 207° Southwest 430 495 38,000  Level Gander Center
12:43PM 53.0000 -74.3333 207° Southwest 430 495 38,000  Level Gander Center
12:44PM 52.9000 -74.4167 207° Southwest 430 495 38,000  Level Gander Center
12:45PM 52.7833 -74.5000 203° Southwest 430 495 38,000  Level Gander Center
12:46PM 52.6667 -74.6000 207° Southwest 430 495 38,000  Level Gander Center
12:47PM 52.5667 -74.6667 202° Southwest 430 495 38,000  Level Gander Center
12:48PM 52.4667 -74.7500 207° Southwest 420 483 38,000  Level Gander Center
12:49PM 52.3500 -74.8667 211° Southwest 420 483 38,000  Level Gander Center
12:50PM 52.2667 -74.9500 211° Southwest 420 483 38,000  Level Gander Center
12:51PM 52.1500 -75.0167 199° South 420 483 38,000  Level Gander Center
12:52PM 52.0333 -75.1000 204° Southwest 420 483 38,000  Level Gander Center
12:53PM 51.9500 -75.1833 212° Southwest 420 483 38,000  Level Gander Center
12:54PM 51.8333 -75.2500 199° South 420 483 38,000  Level Gander Center
12:55PM 51.7167 -75.3500 208° Southwest 420 483 38,000  Level Gander Center
12:56PM 51.6333 -75.4333 212° Southwest 430 495 38,000  Level Gander Center
12:57PM 51.5167 -75.5000 200° South 420 483 38,000  Level Gander Center
12:59PM 51.3667 -75.5833 199° South 420 483 38,000  Level Montreal Center
01:00PM 51.2500 -75.6667 204° Southwest 420 483 38,000  Level Montreal Center
01:01PM 51.1500 -75.7500 208° Southwest 420 483 38,000  Level Montreal Center
01:02PM 51.0333 -75.8333 204° Southwest 420 483 38,000  Level Montreal Center
01:03PM 50.9333 -75.9167 208° Southwest 420 483 38,000  Level Montreal Center
01:04PM 50.8167 -76.0000 204° Southwest 420 483 38,000  Level Montreal Center
01:05PM 50.7167 -76.0500 198° South 420 483 38,000  Level Montreal Center
01:06PM 50.6167 -76.1167 203° Southwest 420 483 38,000  Level Montreal Center
01:07PM 50.5167 -76.2000 208° Southwest 420 483 38,000  Level Montreal Center
01:08PM 50.4000 -76.2833 204° Southwest 430 495 38,000  Level Montreal Center
01:09PM 50.3000 -76.3667 208° Southwest 430 495 38,000  Level Montreal Center
01:10PM 50.1833 -76.4333 200° South 420 483 38,000  Level Montreal Center
01:11PM 50.0667 -76.5167 205° Southwest 420 483 38,000  Level Montreal Center
01:12PM 49.9667 -76.6000 208° Southwest 420 483 38,000  Level Montreal Center
01:13PM 49.8500 -76.6667 200° South 420 483 38,000  Level Montreal Center
01:14PM 49.7500 -76.7500 208° Southwest 420 483 38,000  Level Montreal Center
01:15PM 49.6333 -76.8167 200° South 430 495 38,000  Level Montreal Center
01:16PM 49.5333 -76.9000 208° Southwest 410 472 38,000  Level Montreal Center
01:17PM 49.4333 -76.9667 203° Southwest 430 495 38,000  Level Montreal Center
01:18PM 49.3167 -77.0500 205° Southwest 430 495 38,000  Level Montreal Center
01:19PM 49.2167 -77.1167 204° Southwest 410 472 38,000  Level Montreal Center
01:20PM 49.1000 -77.2000 205° Southwest 420 483 38,000  Level Montreal Center
01:21PM 49.0000 -77.2667 204° Southwest 420 483 38,000  Level Montreal Center
01:22PM 48.8833 -77.3500 205° Southwest 420 483 38,000  Level Montreal Center
01:23PM 48.7833 -77.4167 204° Southwest 410 472 38,000  Level Montreal Center
01:24PM 48.6667 -77.5000 205° Southwest 420 483 38,000  Level Montreal Center
01:25PM 48.5667 -77.5667 204° Southwest 420 483 38,000  Level Montreal Center
01:26PM 48.4667 -77.6333 204° Southwest 420 483 38,000  Level Montreal Center
01:27PM 48.3500 -77.7167 205° Southwest 420 483 38,000  Level Montreal Center
01:28PM 48.2500 -77.7833 204° Southwest 420 483 38,000  Level Montreal Center
01:29PM 48.1500 -77.8500 204° Southwest 420 483 38,000  Level Montreal Center
01:30PM 48.0333 -77.9000 196° South 420 483 38,000  Level Montreal Center
01:31PM 47.9000 -77.9667 199° South 420 483 38,000  Level Montreal Center
01:32PM 47.8000 -78.0500 209° Southwest 430 495 38,000  Level Montreal Center
01:33PM 47.6833 -78.1167 201° Southwest 430 495 38,000  Level Montreal Center
01:34PM 47.5833 -78.1500 193° South 430 495 38,000  Level Montreal Center
01:35PM 47.4667 -78.2333 206° Southwest 430 495 38,000  Level Montreal Center
01:36PM 47.3500 -78.3000 201° Southwest 430 495 38,000  Level Montreal Center
01:37PM 47.2500 -78.3667 204° Southwest 430 495 38,000  Level Montreal Center
01:39PM 47.0333 -78.4500 195° South 440 506 38,000  Level Toronto Center
01:40PM 46.9333 -78.5167 204° Southwest 440 506 38,000  Level Toronto Center
01:41PM 46.8167 -78.5833 201° Southwest 440 506 38,000  Level Toronto Center
01:42PM 46.7000 -78.6333 196° South 440 506 38,000  Level Toronto Center
01:43PM 46.5833 -78.7167 206° Southwest 440 506 38,000  Level Toronto Center
01:44PM 46.4667 -78.7667 196° South 440 506 38,000  Level Toronto Center
01:45PM 46.3500 -78.8333 202° Southwest 440 506 38,000  Level Toronto Center
01:46PM 46.2333 -78.8833 197° South 440 506 38,000  Level Toronto Center
01:47PM 46.1333 -78.9500 205° Southwest 430 495 38,000  Level Toronto Center
01:48PM 46.0167 -79.0000 197° South 430 495 38,000  Level Toronto Center
01:49PM 45.9000 -79.0833 206° Southwest 430 495 38,000  Level Toronto Center
01:50PM 45.8000 -79.1333 199° South 430 495 38,000  Level Toronto Center
01:51PM 45.6667 -79.2000 199° South 430 495 38,000  Level Toronto Center
01:52PM 45.5667 -79.2500 199° South 430 495 38,000  Level Toronto Center
01:53PM 45.4500 -79.3167 202° Southwest 430 495 38,000  Level Toronto Center
01:54PM 45.3333 -79.3667 197° South 430 495 38,000  Level Toronto Center
01:55PM 45.2167 -79.4500 207° Southwest 430 495 38,000  Level Toronto Center
01:56PM 45.1167 -79.4833 193° South 430 495 38,000  Level Toronto Center
01:57PM 45.0000 -79.5667 207° Southwest 430 495 38,000  Level Toronto Center
02:02PM 44.3720 -79.9826 207° Southwest 425 489 38,000  Level FlightAware ADS-B
02:03PM 44.3375 -80.0135 213° Southwest 424 488 38,000  Level FlightAware ADS-B
02:08PM 43.8172 -80.4752 213° Southwest 429 494 38,000  Level FlightAware ADS-B (MDST / STI)
02:09PM 43.7570 -80.5283 212° Southwest 428 493 38,000  Level FlightAware ADS-B (MDST / STI)
02:09PM 43.6951 -80.5822 212° Southwest 423 487 38,000  Level FlightAware ADS-B (MDST / STI)
02:10PM 43.6227 -80.6452 212° Southwest 421 484 38,000  Level FlightAware ADS-B (MDST / STI)
02:11PM 43.5500 -80.6833 212° Southwest 420 483 38,000  Level Toronto Center
02:12PM 43.4667 -80.7667 216° Southwest 420 483 38,000  Level Toronto Center
02:18PM 42.8332 -81.2756 216° Southwest 421 484 38,000  Level FlightAware ADS-B
02:19PM 42.7657 -81.3172 204° Southwest 422 486 38,000  Level FlightAware ADS-B
02:19PM 42.6919 -81.3627 204° Southwest 421 484 38,000  Level FlightAware ADS-B
02:20PM 42.6239 -81.4042 204° Southwest 419 482 38,000  Level FlightAware ADS-B
02:21PM 42.5550 -81.4462 204° Southwest 419 482 38,000  Level FlightAware ADS-B
02:21PM 42.4917 -81.4848 204° Southwest 420 483 38,000  Level FlightAware ADS-B
02:22PM 42.4211 -81.5277 204° Southwest 420 483 38,000  Level FlightAware ADS-B
02:23PM 42.3445 -81.5741 204° Southwest 419 482 38,000  Level FlightAware ADS-B
02:24PM 42.2380 -81.6385 204° Southwest 419 482 38,000  Level FlightAware ADS-B
02:25PM 42.1167 -81.7000 204° Southwest 420 483 38,000  Level Toronto Center
02:26PM 41.9814 -81.7925 207° Southwest 420 483 38,000  Level Cleveland Center
02:27PM 41.8750 -81.8547 204° Southwest 416 479 38,000  Level Cleveland Center
02:28PM 41.7675 -81.9192 204° Southwest 421 484 38,000  Level Cleveland Center
02:29PM 41.6617 -81.9822 204° Southwest 417 480 38,000  Level Cleveland Center
02:30PM 41.5542 -82.0456 204° Southwest 420 483 38,000  Level Cleveland Center
02:31PM 41.4297 -82.1172 203° Southwest 420 483 38,000  Level Cleveland Center
02:32PM 41.3231 -82.1747 202° Southwest 416 479 38,000  Level Cleveland Center
02:33PM 41.2089 -82.2142 195° South 422 486 38,000  Level Cleveland Center
02:34PM 41.0950 -82.2550 195° South 423 487 38,000  Level Cleveland Center
02:35PM 40.9814 -82.2947 195° South 423 487 38,000  Level Cleveland Center
02:36PM 40.8492 -82.3422 195° South 419 482 38,000  Level Cleveland Center
02:37PM 40.7753 -82.3681 195° South 414 476 38,000  Level Indianapolis Center
02:38PM 40.6622 -82.4092 195° South 417 480 38,000  Level Indianapolis Center
02:39PM 40.5481 -82.4494 195° South 423 487 38,000  Level Indianapolis Center
02:44PM 39.8894 -82.6061 195° South 450 518 38,000  Level FlightAware ADS-B
02:45PM 39.8035 -82.6120 183° South 449 517 38,000  Level FlightAware ADS-B
02:46PM 39.7266 -82.6174 183° South 449 517 38,000  Level FlightAware ADS-B
02:46PM 39.6374 -82.6233 183° South 447 514 38,000  Level FlightAware ADS-B
02:47PM 39.5566 -82.6287 183° South 447 514 38,000  Level FlightAware ADS-B
02:48PM 39.4732 -82.6343 183° South 448 516 38,000  Level FlightAware ADS-B
02:48PM 39.3891 -82.6398 183° South 448 516 38,000  Level FlightAware ADS-B
02:49PM 39.3126 -82.6448 183° South 451 519 38,000  Level FlightAware ADS-B
02:50PM 39.2203 -82.6511 183° South 452 520 38,000  Level FlightAware ADS-B
02:50PM 39.1407 -82.6564 183° South 451 519 38,000  Level FlightAware ADS-B
02:51PM 39.0730 -82.6609 183° South 447 514 38,000  Level FlightAware ADS-B
02:52PM 38.9794 -82.6670 183° South 441 507 38,000  Level FlightAware ADS-B
02:52PM 38.8989 -82.6722 183° South 438 504 38,000  Level FlightAware ADS-B
02:53PM 38.8156 -82.6777 183° South 435 501 38,000  Level FlightAware ADS-B
02:54PM 38.7502 -82.6820 183° South 435 501 38,000  Level FlightAware ADS-B
02:54PM 38.6886 -82.6853 183° South 433 498 38,000  Level Indianapolis Center
02:55PM 38.5517 -82.6956 183° South 433 498 38,000  Level Indianapolis Center
02:56PM 38.4306 -82.7028 183° South 434 499 38,000  Level Indianapolis Center
02:57PM 38.3100 -82.7119 183° South 432 497 38,000  Level Indianapolis Center
02:59PM 38.1700 -82.7214 183° South 431 496 38,000  Level Indianapolis Center
03:00PM 38.0506 -82.7289 183° South 429 494 38,000  Level Indianapolis Center
03:01PM 37.9322 -82.7356 183° South 426 490 38,000  Level Indianapolis Center
03:02PM 37.8133 -82.7436 183° South 426 490 38,000  Level Indianapolis Center
03:03PM 37.6967 -82.7581 186° South 422 486 38,000  Level Indianapolis Center
03:04PM 37.5906 -82.8064 200° South 406 467 38,000  Level Indianapolis Center
03:05PM 37.4789 -82.8836 209° Southwest 391 450 38,000  Level Indianapolis Center
03:06PM 37.3814 -82.9467 207° Southwest 394 453 38,000  Level Indianapolis Center
03:07PM 37.2853 -83.0100 208° Southwest 392 451 38,000  Level Indianapolis Center
03:08PM 37.1886 -83.0722 207° Southwest 391 450 38,000  Level Indianapolis Center
03:09PM 37.0928 -83.1353 208° Southwest 392 451 38,000  Level Indianapolis Center
03:10PM 36.9803 -83.2081 207° Southwest 393 452 38,000  Level Indianapolis Center
03:11PM 36.8839 -83.2706 207° Southwest 394 453 38,000  Level Indianapolis Center
03:12PM 36.7878 -83.3325 207° Southwest 391 450 38,000  Level Indianapolis Center
03:13PM 36.6922 -83.3933 207° Southwest 388 447 38,000  Level Indianapolis Center
03:14PM 36.5808 -83.4647 207° Southwest 385 443 38,000  Level Indianapolis Center
03:15PM 36.4875 -83.5258 208° Southwest 383 441 38,000  Level Indianapolis Center
03:16PM 36.3928 -83.5869 207° Southwest 382 440 38,000  Level Indianapolis Center
03:17PM 36.2967 -83.6472 207° Southwest 385 443 38,000  Level Indianapolis Center
03:18PM 36.2011 -83.7078 207° Southwest 385 443 38,000  Level Indianapolis Center
03:19PM 36.1058 -83.7689 207° Southwest 385 443 38,000  Level Atlanta Center
03:20PM 36.0100 -83.8308 208° Southwest 385 443 38,000  Level Atlanta Center
03:21PM 35.9331 -83.8772 206° Southwest 385 443 38,000  Level Atlanta Center
03:22PM 35.8183 -83.9183 196° South 385 443 38,000  Level Atlanta Center
03:23PM 35.7078 -83.9467 192° South 390 449 38,000  Level Atlanta Center
03:24PM 35.5972 -83.9725 191° South 396 456 38,000  Level Atlanta Center
03:25PM 35.4867 -83.9981 191° South 401 461 38,000  Level Atlanta Center
03:26PM 35.3783 -84.0233 191° South 406 467 38,000  Level Atlanta Center
03:27PM 35.2675 -84.0489 191° South 411 473 38,000  Level Atlanta Center
03:28PM 35.1611 -84.0769 192° South 411 473 38,000  Level Atlanta Center
03:29PM 35.0506 -84.1047 192° South 411 473 38,000  Level Atlanta Center
03:30PM 34.9378 -84.1300 190° South 411 473 38,000  Level Atlanta Center
03:31PM 34.8336 -84.1553 191° South 406 467 38,000  Level Atlanta Center
03:32PM 34.7231 -84.1803 191° South 406 467 38,000  Level Atlanta Center
03:33PM 34.6164 -84.2028 190° South 398 458 38,000  Level Atlanta Center
03:34PM 34.5078 -84.2303 192° South 398 458 38,000  Level Atlanta Center
03:35PM 34.3994 -84.2528 190° South 398 458 38,000  Level Atlanta Center
03:36PM 34.2928 -84.2803 192° South 392 451 38,000  Level Atlanta Center
03:37PM 34.1842 -84.3050 191° South 392 451 38,000  Level Atlanta Center
03:38PM 34.0736 -84.3322 192° South 399 459 38,000  Level Atlanta Center
03:39PM 33.9714 -84.3569 191° South 394 453 38,000  Level Atlanta Center
03:40PM 33.8647 -84.3814 191° South 388 447 38,000  Level Atlanta Center
03:41PM 33.7625 -84.4086 192° South 394 453 38,000  Level Atlanta Center
03:42PM 33.6497 -84.4306 189° South 394 453 38,000  Level Atlanta Center
03:43PM 33.5411 -84.4375 183° South 394 453 38,000  Level Atlanta Center
03:44PM 33.4283 -84.4344 179° South 394 453 38,000  Level Atlanta Center
03:45PM 33.3197 -84.4342 180° South 400 460 38,000  Level Atlanta Center
03:46PM 33.2092 -84.4311 179° South 400 460 38,000  Level Atlanta Center
03:47PM 33.1028 -84.4306 180° South 395 455 38,000  Level Atlanta Center
03:48PM 32.9922 -84.4278 179° South 395 455 38,000  Level Atlanta Center
03:49PM 32.8731 -84.4272 180° South 395 455 38,000  Level Atlanta Center
03:50PM 32.7772 -84.4217 177° South 395 455 38,000  Level Atlanta Center
03:51PM 32.6708 -84.4164 178° South 389 448 38,000  Level Atlanta Center
03:52PM 32.5600 -84.4158 180° South 389 448 38,000  Level Atlanta Center
03:53PM 32.4536 -84.4156 180° South 389 448 38,000  Level Atlanta Center
03:57PM 32.0072 -84.4042 179° South 385 443 38,000 -120 Level Jacksonville Center
04:03PM 31.3415 -84.3892 179° South 393 452 37,000 -180 Descending FlightAware ADS-B (KTLH)
04:05PM 31.1886 -84.3861 179° South 393 452 37,000  Level FlightAware ADS-B (KTLH)
04:05PM 31.1111 -84.3846 179° South 396 456 37,000  Level FlightAware ADS-B (KTLH)
04:06PM 31.0563 -84.3837 179° South 398 458 37,000  Level FlightAware ADS-B (KTLH)
04:07PM 30.9660 -84.3820 179° South 400 460 37,000  Level FlightAware ADS-B (KTLH)
04:07PM 30.8879 -84.3805 179° South 402 463 37,000  Level FlightAware ADS-B (KTLH)
04:08PM 30.8250 -84.3792 179° South 404 465 37,000  Level FlightAware ADS-B (KTLH)
04:09PM 30.7462 -84.3776 179° South 406 467 37,000  Level FlightAware ADS-B (KTLH)
04:09PM 30.6702 -84.3749 178° South 413 475 37,000  Level FlightAware ADS-B (KTLH)
04:10PM 30.5838 -84.3591 171° South 432 497 37,000  Level FlightAware ADS-B (KTLH)
04:11PM 30.5051 -84.3314 163° South 448 516 37,000  Level FlightAware ADS-B (KTLH)
04:11PM 30.4395 -84.2969 156° South 465 535 37,000  Level FlightAware ADS-B (KTLH)
04:12PM 30.3577 -84.2433 151° Southeast 466 536 37,000  Level FlightAware ADS-B (KTLH)
04:13PM 30.2838 -84.1952 151° Southeast 462 532 37,000  Level FlightAware ADS-B (KTLH)
04:13PM 30.2041 -84.1433 151° Southeast 460 529 37,000  Level FlightAware ADS-B (KTLH)
04:14PM 30.1370 -84.0996 151° Southeast 461 531 37,000  Level FlightAware ADS-B (KTLH)
04:15PM 30.0550 -84.0462 151° Southeast 461 531 37,000  Level FlightAware ADS-B (KTLH)
04:15PM 29.9837 -83.9999 151° Southeast 459 528 37,000  Level FlightAware ADS-B (KTLH)
04:16PM 29.9642 -83.9872 151° Southeast 459 528 37,000  Level FlightAware ADS-B (KTLH)
04:17PM 29.9068 -83.9500 151° Southeast 459 528 37,000  Level FlightAware ADS-B (KTLH)
04:18PM 29.9837 -83.9999 331° Northwest 457 526 37,000  Level FlightAware ADS-B (KTLH)
04:19PM 29.5789 -83.7428 331° Northwest 460 529 37,000  Level Jacksonville Center
04:20PM 29.4686 -83.6703 150° Southeast 460 529 37,000  Level Jacksonville Center
04:21PM 29.3564 -83.6003 151° Southeast 460 529 37,000  Level Jacksonville Center
04:22PM 29.2461 -83.5281 150° Southeast 455 524 37,000  Level Jacksonville Center
04:23PM 29.1339 -83.4561 151° Southeast 455 524 37,000  Level Jacksonville Center
04:24PM 29.0214 -83.3842 151° Southeast 455 524 37,000  Level Jacksonville Center
04:25PM 28.9089 -83.3125 151° Southeast 455 524 37,000  Level Jacksonville Center
04:31PM 28.2751 -82.9128 151° Southeast 464 534 37,000  Level FlightAware ADS-B (KMCO)
04:31PM 28.1914 -82.8606 151° Southeast 463 533 37,000  Level FlightAware ADS-B (KMCO)
04:32PM 28.0728 -82.7866 151° Southeast 462 532 37,000  Level FlightAware ADS-B (KMCO)
04:33PM 27.9899 -82.7352 151° Southeast 464 534 37,000  Level FlightAware ADS-B (KMCO)
04:34PM 27.8783 -82.6657 151° Southeast 465 535 37,000  Level FlightAware ADS-B (KMCO)
04:35PM 27.8092 -82.6188 149° Southeast 457 526 37,000  Level FlightAware ADS-B (KMCO)
04:36PM 27.7137 -82.5546 149° Southeast 454 522 37,000  Level FlightAware ADS-B (KMCO)
04:36PM 27.6384 -82.5045 149° Southeast 456 525 37,000  Level FlightAware ADS-B (KMCO)
04:37PM 27.5656 -82.4561 149° Southeast 456 525 37,000  Level FlightAware ADS-B (KMCO)
04:38PM 27.4909 -82.4065 150° Southeast 454 522 37,000  Level FlightAware ADS-B (KMCO)
04:38PM 27.4227 -82.3614 150° Southeast 455 524 37,000  Level FlightAware ADS-B (KMCO)
04:39PM 27.3427 -82.3085 150° Southeast 457 526 37,000  Level FlightAware ADS-B (KMCO)
04:40PM 27.2699 -82.2604 150° Southeast 457 526 37,000  Level FlightAware ADS-B (KMCO)
04:40PM 27.2105 -82.2212 150° Southeast 456 525 37,000  Level FlightAware ADS-B (KMCO)
04:41PM 27.1218 -82.1627 150° Southeast 454 522 37,000  Level FlightAware ADS-B (KMCO)
04:42PM 27.0738 -82.1315 150° Southeast 454 522 37,000  Level FlightAware ADS-B (KMCO)
04:42PM 26.9714 -82.0642 150° Southeast 452 520 37,000  Level FlightAware ADS-B (KMCO)
04:43PM 26.9208 -82.0440 160° South 434 499 37,000  Level FlightAware ADS-B (KMCO)
04:43PM 26.8402 -82.0210 166° South 441 507 37,000  Level FlightAware ADS-B (KMCO)
04:44PM 26.7610 -81.9979 165° South 442 509 37,000  Level FlightAware ADS-B (KMCO)
04:45PM 26.6806 -81.9744 165° South 444 511 37,000  Level FlightAware ADS-B (KMCO)
04:46PM 26.6007 -81.9513 165° South 445 512 37,000  Level FlightAware ADS-B (KMCO)
04:46PM 26.5178 -81.9275 166° South 447 514 37,000  Level FlightAware ADS-B (KMCO)
04:47PM 26.4363 -81.9041 166° South 449 517 37,000  Level FlightAware ADS-B (KMCO)
04:48PM 26.3620 -81.8827 165° South 449 517 37,000  Level FlightAware ADS-B (KMCO)
04:48PM 26.2722 -81.8568 166° South 449 517 37,000  Level FlightAware ADS-B (KMCO)
04:49PM 26.1818 -81.8309 166° South 450 518 37,000  Level FlightAware ADS-B (KMCO)
04:50PM 26.1059 -81.8090 165° South 449 517 37,000  Level FlightAware ADS-B (KMCO)
04:50PM 26.0133 -81.7826 166° South 451 519 37,000  Level FlightAware ADS-B (KMCO)
04:52PM 25.8569 -81.7394 166° South 448 516 37,000  Level Miami Center
04:53PM 25.7328 -81.7067 167° South 448 516 37,000  Level Miami Center
04:54PM 25.6128 -81.6697 164° South 448 516 37,000  Level Miami Center
04:55PM 25.4886 -81.6347 166° South 448 516 37,000  Level Miami Center
04:56PM 25.3667 -81.6003 166° South 448 516 37,000  Level Miami Center
04:57PM 25.2467 -81.5681 166° South 448 516 37,000  Level Miami Center
04:58PM 25.1264 -81.5336 165° South 448 516 37,000  Level Miami Center
04:59PM 25.0044 -81.4989 166° South 448 516 37,000 -480 Level Miami Center
05:00PM 24.8822 -81.4647 166° South 448 516 36,100 -960 Descending Miami Center
05:01PM 24.7561 -81.4281 165° South 453 521 35,100 -1,020 Descending Miami Center
05:02PM 24.6339 -81.3961 167° South 453 521 34,100 -1,140 Descending Miami Center
05:03PM 24.5117 -81.3594 165° South 453 521 32,900 -1,980 Descending Miami Center
05:04PM 24.3853 -81.3253 166° South 454 522 30,200 -2,460 Descending Miami Center
05:05PM 24.2653 -81.2892 165° South 454 522 28,000 -2,160 Descending Miami Center
05:06PM 24.1447 -81.2692 171° South 448 516 25,900 -1,500 Descending Miami Center
05:07PM 24.0317 -81.2811 186° South 421 484 25,100 -840 Descending Miami Center
05:09PM 23.8808 -81.3492 225° Southwest  Level FlightAware Approximate
05:16PM 23.3086 -82.0154 228° Southwest  Level FlightAware Approximate
05:17PM 23.2277 -82.1113 226° Southwest  Level FlightAware Approximate
05:18PM 23.1440 -82.2040 212° Southwest  Level FlightAware Approximate
05:19PM 23.0624 -82.2945 231° Southwest  Level FlightAware Approximate
05:20PM 22.9792 -82.3875 223° Southwest  Level FlightAware Approximate
05:21PM 22.9667 -82.4000 223° Southwest  Level FlightAware Approximate
05:22PM 22.9891 -82.4091 223° Southwest  Level Estimated
05:23PM 22.9891 -82.4091 223° Southwest  Level Estimated
05:24PM 22.9891 -82.4091 223° Southwest  Level Estimated
05:25PM 22.9891 -82.4091 223° Southwest  Level Estimated
05:26PM 22.9891 -82.4091 223° Southwest  Level Estimated
05:27PM 22.9891 -82.4091 223° Southwest  Level Estimated
05:28PM 22.9891 -82.4091 223° Southwest  Level Estimated
05:29PM 22.9891 -82.4091 223° Southwest  Level Estimated
05:30PM 22.9891 -82.4091 223° Southwest  Level Estimated
05:31PM 22.9891 -82.4091 223° Southwest  Level Estimated
05:32PM 22.9891 -82.4091 223° Southwest  Level Estimated
05:33PM 22.9891 -82.4091 223° Southwest  Level Estimated
05:34PM 22.9891 -82.4091 223° Southwest  Level Estimated
05:35PM 22.9891 -82.4091 223° Southwest  Level Estimated
05:36PM 22.9891 -82.4091 223° Southwest  Level Estimated
05:37PM 22.9891 -82.4091 223° Southwest  Level Estimated
05:38PM 22.9891 -82.4091 223° Southwest  Level Estimated
05:39PM 22.9891 -82.4091 223° Southwest  Level Estimated
05:40PM 22.9891 -82.4091 223° Southwest  Level Estimated
05:41PM 22.9891 -82.4091 223° Southwest  Level Estimated
05:42PM 22.9891 -82.4091 223° Southwest  Level Estimated